Time;durP1;ratioP1;P1;durP2;ratioP2;P2;SDS_P1;SDS_P2;PMS_P1;PMS_P2;Temp;Humidity;BMP_temperature;BMP_pressure;BME280_temperature;BME280_humidity;BME280_pressure;Samples;Min_cycle;Max_cycle;Signal;HPM_P1;HPM_P2
2023/02/22 00:00:26;;;;;;;9.30;7.13;;;;;;;;;;10326597;28;20075;-63
2023/02/22 00:05:26;;;;;;;8.77;7.22;;;;;;;;;;10332124;28;20522;-62
2023/02/22 00:10:25;;;;;;;9.77;7.05;;;;;;;;;;10331250;28;20048;-62
2023/02/22 00:15:26;;;;;;;12.65;7.43;;;;;;;;;;10330567;28;20055;-62
2023/02/22 00:20:24;;;;;;;11.82;7.35;;;;;;;;;;10333054;28;20091;-61
2023/02/22 00:25:24;;;;;;;11.32;6.95;;;;;;;;;;10328268;28;20071;-61
2023/02/22 00:30:25;;;;;;;23.25;9.40;;;;;;;;;;10332733;28;20541;-62
2023/02/22 00:35:24;;;;;;;10.38;7.18;;;;;;;;;;10330727;28;20090;-62
2023/02/22 00:40:23;;;;;;;8.82;7.32;;;;;;;;;;10332194;28;20070;-63
2023/02/22 00:45:23;;;;;;;8.27;6.75;;;;;;;;;;10314524;28;20044;-62
2023/02/22 00:50:24;;;;;;;10.25;7.70;;;;;;;;;;10332677;28;20095;-61
2023/02/22 00:55:23;;;;;;;7.53;6.57;;;;;;;;;;10329185;28;20643;-62
2023/02/22 01:00:24;;;;;;;9.10;7.50;;;;;;;;;;10312096;28;20076;-62
2023/02/22 01:05:25;;;;;;;10.23;6.75;;;;;;;;;;10313233;28;20083;-62
2023/02/22 01:10:25;;;;;;;13.68;7.13;;;;;;;;;;10310799;28;20079;-62
2023/02/22 01:15:24;;;;;;;9.23;6.97;;;;;;;;;;10331194;28;20067;-63
2023/02/22 01:20:24;;;;;;;10.93;6.80;;;;;;;;;;10331127;28;20080;-62
2023/02/22 01:25:23;;;;;;;8.77;6.95;;;;;;;;;;10327956;28;20068;-63
2023/02/22 01:30:22;;;;;;;11.40;6.78;;;;;;;;;;10328569;28;20072;-63
2023/02/22 01:35:22;;;;;;;8.48;6.47;;;;;;;;;;10330830;28;20504;-63
2023/02/22 01:40:24;;;;;;;9.95;6.18;;;;;;;;;;10323968;28;20075;-62
2023/02/22 01:45:40;;;;;;;7.78;6.43;;;;;;;;;;10327999;28;20079;-63
2023/02/22 01:50:40;;;;;;;10.65;7.22;;;;;;;;;;10318988;28;20075;-60
2023/02/22 01:55:40;;;;;;;7.30;6.35;;;;;;;;;;10322492;28;20549;-61
2023/02/22 02:00:39;;;;;;;8.40;6.57;;;;;;;;;;10305778;28;20091;-61
2023/02/22 02:05:38;;;;;;;9.35;7.13;;;;;;;;;;10287412;28;20513;-62
2023/02/22 02:10:37;;;;;;;10.20;5.85;;;;;;;;;;10288575;28;20072;-62
2023/02/22 02:15:37;;;;;;;8.52;7.40;;;;;;;;;;10292509;28;20059;-62
2023/02/22 02:20:42;;;;;;;10.23;6.85;;;;;;;;;;10287957;28;20087;-62
2023/02/22 02:25:50;;;;;;;10.27;6.55;;;;;;;;;;10291581;28;20068;-62
2023/02/22 02:30:57;;;;;;;7.40;6.43;;;;;;;;;;10293519;28;20068;-63
2023/02/22 02:36:01;;;;;;;7.97;7.00;;;;;;;;;;10295496;28;20084;-63
2023/02/22 02:41:04;;;;;;;8.57;5.90;;;;;;;;;;10293071;28;20111;-63
2023/02/22 02:46:05;;;;;;;10.52;6.22;;;;;;;;;;10294303;28;20068;-62
2023/02/22 02:51:07;;;;;;;7.32;6.03;;;;;;;;;;10300310;28;20063;-62
2023/02/22 02:56:06;;;;;;;9.98;6.45;;;;;;;;;;10298211;28;20514;-62
2023/02/22 03:01:04;;;;;;;7.00;5.85;;;;;;;;;;10292716;28;20073;-62
2023/02/22 03:06:13;;;;;;;11.43;6.40;;;;;;;;;;10289475;28;20076;-62
2023/02/22 03:11:14;;;;;;;7.68;5.28;;;;;;;;;;10285192;28;20060;-63
2023/02/22 03:16:19;;;;;;;10.52;6.25;;;;;;;;;;10292490;28;20136;-63
2023/02/22 03:21:24;;;;;;;7.43;6.43;;;;;;;;;;10277632;28;20083;-63
2023/02/22 03:26:25;;;;;;;9.82;6.22;;;;;;;;;;10293364;28;20072;-62
2023/02/22 03:31:28;;;;;;;7.32;5.47;;;;;;;;;;10275013;28;20070;-62
2023/02/22 03:36:30;;;;;;;8.82;6.30;;;;;;;;;;10278587;28;20045;-63
2023/02/22 03:41:29;;;;;;;7.32;5.70;;;;;;;;;;10274571;28;20088;-63
2023/02/22 03:46:30;;;;;;;9.85;5.85;;;;;;;;;;10290316;28;20089;-62
2023/02/22 03:51:31;;;;;;;8.98;5.82;;;;;;;;;;10275269;28;20072;-62
2023/02/22 03:56:34;;;;;;;9.02;6.40;;;;;;;;;;10277024;28;20087;-63
2023/02/22 04:01:33;;;;;;;8.10;6.10;;;;;;;;;;10273816;28;20095;-62
2023/02/22 04:06:33;;;;;;;7.57;5.80;;;;;;;;;;10332851;28;20091;-63
2023/02/22 04:11:32;;;;;;;8.43;6.72;;;;;;;;;;10324188;28;20076;-62
2023/02/22 04:16:30;;;;;;;7.05;6.35;;;;;;;;;;10327019;28;20053;-62
2023/02/22 04:21:29;;;;;;;8.10;7.15;;;;;;;;;;10315899;28;20082;-61
2023/02/22 04:26:30;;;;;;;11.32;7.30;;;;;;;;;;10319184;28;20076;-61
2023/02/22 04:31:32;;;;;;;8.75;6.80;;;;;;;;;;10322836;28;20122;-62
2023/02/22 04:36:31;;;;;;;9.20;8.30;;;;;;;;;;10323634;28;20072;-62
2023/02/22 04:41:33;;;;;;;9.57;5.80;;;;;;;;;;10317333;28;20088;-62
2023/02/22 04:46:31;;;;;;;6.13;5.50;;;;;;;;;;10335011;28;20072;-62
2023/02/22 04:51:31;;;;;;;8.70;4.93;;;;;;;;;;10298740;28;20087;-62
2023/02/22 04:56:34;;;;;;;9.70;5.90;;;;;;;;;;10313917;28;20488;-61
2023/02/22 05:01:33;;;;;;;11.23;7.40;;;;;;;;;;10335283;28;20064;-62
2023/02/22 05:06:32;;;;;;;11.02;7.45;;;;;;;;;;10302510;28;20049;-62
2023/02/22 05:11:30;;;;;;;9.60;6.90;;;;;;;;;;10295946;28;20060;-61
2023/02/22 05:16:30;;;;;;;9.07;6.97;;;;;;;;;;10292126;28;20066;-62
2023/02/22 05:21:28;;;;;;;12.68;6.00;;;;;;;;;;10291458;28;20068;-62
2023/02/22 05:26:27;;;;;;;13.32;7.50;;;;;;;;;;10284565;28;20131;-62
2023/02/22 05:31:25;;;;;;;8.52;7.65;;;;;;;;;;10289791;28;20406;-62
2023/02/22 05:36:26;;;;;;;7.95;5.78;;;;;;;;;;10292521;28;20067;-62
2023/02/22 05:41:25;;;;;;;12.32;6.90;;;;;;;;;;10296677;28;20057;-62
2023/02/22 05:46:23;;;;;;;9.52;6.32;;;;;;;;;;10300194;28;20266;-63
2023/02/22 05:51:22;;;;;;;5.93;5.32;;;;;;;;;;10298669;28;20076;-63
2023/02/22 05:56:23;;;;;;;7.88;5.93;;;;;;;;;;10290923;28;20540;-61
2023/02/22 06:01:21;;;;;;;9.27;6.38;;;;;;;;;;10309118;28;20067;-62
2023/02/22 06:06:20;;;;;;;6.95;5.47;;;;;;;;;;10346064;28;20076;-62
2023/02/22 06:11:19;;;;;;;6.93;6.22;;;;;;;;;;10346199;28;20074;-62
2023/02/22 06:16:19;;;;;;;13.65;8.70;;;;;;;;;;10345882;28;20062;-63
2023/02/22 06:21:18;;;;;;;13.00;7.88;;;;;;;;;;10343317;28;20071;-62
2023/02/22 06:26:17;;;;;;;12.23;9.50;;;;;;;;;;10345388;28;20104;-61
2023/02/22 06:31:15;;;;;;;9.63;8.63;;;;;;;;;;10339141;28;20142;-61
2023/02/22 06:36:15;;;;;;;12.75;10.70;;;;;;;;;;10331969;28;20719;-62
2023/02/22 06:41:14;;;;;;;10.18;8.07;;;;;;;;;;10337372;28;20501;-61
2023/02/22 06:46:13;;;;;;;8.68;7.78;;;;;;;;;;10333637;28;20060;-62
2023/02/22 06:51:11;;;;;;;9.25;7.60;;;;;;;;;;10338240;28;20071;-62
2023/02/22 06:56:10;;;;;;;12.18;7.55;;;;;;;;;;10340065;28;20079;-62
2023/02/22 07:01:08;;;;;;;10.75;7.63;;;;;;;;;;10335563;28;20064;-61
2023/02/22 07:06:07;;;;;;;10.75;7.82;;;;;;;;;;10339235;28;20106;-62
2023/02/22 07:11:05;;;;;;;11.98;8.20;;;;;;;;;;10334610;28;20060;-63
2023/02/22 07:16:05;;;;;;;10.82;8.90;;;;;;;;;;10333086;28;20068;-62
2023/02/22 07:21:03;;;;;;;9.75;7.63;;;;;;;;;;10334703;28;20075;-61
2023/02/22 07:26:04;;;;;;;9.95;8.02;;;;;;;;;;10335244;28;20085;-62
2023/02/22 07:31:03;;;;;;;14.07;10.65;;;;;;;;;;10323238;28;20068;-62
2023/02/22 07:36:03;;;;;;;14.40;10.57;;;;;;;;;;10334054;28;20056;-61
2023/02/22 07:41:02;;;;;;;10.88;7.43;;;;;;;;;;10335378;28;20068;-62
2023/02/22 07:46:01;;;;;;;11.00;9.07;;;;;;;;;;10332247;28;20060;-62
2023/02/22 07:51:00;;;;;;;8.95;7.68;;;;;;;;;;10331400;28;20076;-61
2023/02/22 07:56:00;;;;;;;9.82;7.65;;;;;;;;;;10330965;28;20071;-62
2023/02/22 08:01:00;;;;;;;13.10;7.93;;;;;;;;;;10333156;28;20092;-62
2023/02/22 08:05:59;;;;;;;18.05;9.45;;;;;;;;;;10331039;28;20493;-62
2023/02/22 08:10:59;;;;;;;14.80;9.82;;;;;;;;;;10329671;28;20067;-63
2023/02/22 08:15:57;;;;;;;9.55;8.65;;;;;;;;;;10337138;28;20486;-63
2023/02/22 08:20:55;;;;;;;13.10;8.95;;;;;;;;;;10333174;28;20067;-62
2023/02/22 08:25:54;;;;;;;9.63;7.53;;;;;;;;;;10328916;28;20079;-63
2023/02/22 08:30:53;;;;;;;12.05;8.65;;;;;;;;;;10336810;28;20474;-62
2023/02/22 08:35:52;;;;;;;12.27;7.28;;;;;;;;;;10313806;28;20076;-63
2023/02/22 08:40:50;;;;;;;14.20;7.63;;;;;;;;;;10332093;28;20060;-63
2023/02/22 08:45:50;;;;;;;18.88;6.70;;;;;;;;;;10329812;28;20071;-61
2023/02/22 08:50:50;;;;;;;11.90;6.82;;;;;;;;;;10329241;28;20072;-62
2023/02/22 08:55:49;;;;;;;6.85;6.15;;;;;;;;;;10330517;28;20079;-62
2023/02/22 09:00:48;;;;;;;12.35;6.88;;;;;;;;;;10329994;28;20068;-62
2023/02/22 09:05:46;;;;;;;18.15;9.10;;;;;;;;;;10329258;28;20071;-63
2023/02/22 09:10:45;;;;;;;17.67;10.13;;;;;;;;;;10330810;28;20064;-62
2023/02/22 09:15:44;;;;;;;8.20;7.07;;;;;;;;;;10328581;28;20470;-61
2023/02/22 09:20:42;;;;;;;9.60;5.90;;;;;;;;;;10316590;28;20475;-61
2023/02/22 09:25:40;;;;;;;12.18;6.15;;;;;;;;;;10336578;28;20064;-61
2023/02/22 09:30:40;;;;;;;7.50;5.95;;;;;;;;;;10335763;28;20068;-62
2023/02/22 09:35:41;;;;;;;6.43;5.30;;;;;;;;;;10328612;28;20174;-61
2023/02/22 09:40:43;;;;;;;7.40;6.07;;;;;;;;;;10332747;28;20095;-62
2023/02/22 09:45:49;;;;;;;12.73;6.78;;;;;;;;;;10330239;28;20087;-61
2023/02/22 09:50:49;;;;;;;8.80;7.72;;;;;;;;;;10326243;28;20067;-61
2023/02/22 09:55:50;;;;;;;14.80;9.45;;;;;;;;;;10328520;28;20127;-62
2023/02/22 10:00:52;;;;;;;9.30;8.00;;;;;;;;;;10328372;28;20076;-62
2023/02/22 10:05:52;;;;;;;9.15;6.25;;;;;;;;;;10326474;28;20071;-63
2023/02/22 10:10:57;;;;;;;12.77;9.43;;;;;;;;;;10325373;28;20644;-63
2023/02/22 10:15:59;;;;;;;10.50;6.47;;;;;;;;;;10328308;28;20549;-63
2023/02/22 10:21:01;;;;;;;9.80;6.88;;;;;;;;;;10325371;28;20060;-62
2023/02/22 10:26:04;;;;;;;7.53;6.65;;;;;;;;;;10327732;28;20076;-62
2023/02/22 10:31:05;;;;;;;6.90;6.20;;;;;;;;;;10328892;28;20072;-62
2023/02/22 10:36:03;;;;;;;13.27;7.00;;;;;;;;;;10328255;28;20457;-63
2023/02/22 10:41:04;;;;;;;8.13;6.25;;;;;;;;;;10329873;28;20075;-63
2023/02/22 10:46:06;;;;;;;10.60;6.07;;;;;;;;;;10330885;28;20488;-61
2023/02/22 10:51:07;;;;;;;12.15;6.88;;;;;;;;;;10335429;28;20072;-62
2023/02/22 10:56:16;;;;;;;9.02;6.53;;;;;;;;;;10336573;28;20513;-63
2023/02/22 11:01:27;;;;;;;7.82;5.82;;;;;;;;;;10331392;28;20519;-63
2023/02/22 11:06:26;;;;;;;7.97;5.15;;;;;;;;;;10334962;28;20088;-62
2023/02/22 11:11:27;;;;;;;7.80;5.50;;;;;;;;;;10334969;28;20075;-62
2023/02/22 11:16:28;;;;;;;6.78;5.13;;;;;;;;;;10335523;28;20060;-62
2023/02/22 11:21:26;;;;;;;5.53;4.32;;;;;;;;;;10331797;28;20067;-62
2023/02/22 11:26:24;;;;;;;15.55;6.28;;;;;;;;;;10333044;28;20063;-62
2023/02/22 11:31:24;;;;;;;5.70;5.10;;;;;;;;;;10335630;28;20091;-62
2023/02/22 11:36:36;;;;;;;7.28;5.90;;;;;;;;;;10333502;28;20072;-62
2023/02/22 11:41:34;;;;;;;8.73;4.97;;;;;;;;;;10329920;28;20086;-62
2023/02/22 11:46:34;;;;;;;8.55;5.82;;;;;;;;;;10334315;28;20072;-63
2023/02/22 11:51:43;;;;;;;10.07;5.57;;;;;;;;;;10311395;28;20040;-62
2023/02/22 11:56:44;;;;;;;6.38;4.63;;;;;;;;;;10328946;28;20072;-63
2023/02/22 12:01:46;;;;;;;6.10;5.30;;;;;;;;;;10333680;28;20068;-63
2023/02/22 12:06:50;;;;;;;6.45;4.10;;;;;;;;;;10333947;28;20661;-63
2023/02/22 12:11:53;;;;;;;5.10;4.15;;;;;;;;;;10333242;28;20060;-62
2023/02/22 12:17:00;;;;;;;5.80;4.13;;;;;;;;;;10331697;28;20076;-63
2023/02/22 12:22:02;;;;;;;6.72;4.53;;;;;;;;;;10332187;28;20064;-62
2023/02/22 12:27:02;;;;;;;8.98;4.88;;;;;;;;;;10334246;28;20103;-62
2023/02/22 12:32:04;;;;;;;10.00;5.35;;;;;;;;;;10327678;28;20067;-62
2023/02/22 12:37:07;;;;;;;7.05;5.88;;;;;;;;;;10331284;28;20075;-62
2023/02/22 12:42:11;;;;;;;12.70;6.00;;;;;;;;;;10327943;28;20071;-62
2023/02/22 12:47:14;;;;;;;12.32;6.80;;;;;;;;;;10331659;28;20072;-62
2023/02/22 12:52:18;;;;;;;10.63;6.20;;;;;;;;;;10330157;28;20531;-62
2023/02/22 12:57:24;;;;;;;13.00;5.63;;;;;;;;;;10330815;28;20083;-62
2023/02/22 13:02:27;;;;;;;9.68;6.05;;;;;;;;;;10330357;28;20076;-62
2023/02/22 13:07:31;;;;;;;7.88;5.72;;;;;;;;;;10331652;28;20089;-62
2023/02/22 13:12:34;;;;;;;10.45;7.10;;;;;;;;;;10332053;28;20453;-62
2023/02/22 13:17:37;;;;;;;9.35;7.15;;;;;;;;;;10327277;28;20076;-62
2023/02/22 13:22:38;;;;;;;11.27;7.13;;;;;;;;;;10330510;28;20084;-63
2023/02/22 13:27:39;;;;;;;8.02;7.05;;;;;;;;;;10330965;28;20075;-62
2023/02/22 13:32:44;;;;;;;8.10;7.20;;;;;;;;;;10331181;28;20076;-62
2023/02/22 13:37:57;;;;;;;8.80;7.75;;;;;;;;;;10329854;28;20450;-61
2023/02/22 13:43:12;;;;;;;11.18;7.13;;;;;;;;;;10328795;28;20071;-63
2023/02/22 13:48:21;;;;;;;10.73;8.20;;;;;;;;;;10317619;28;20079;-62
2023/02/22 13:53:23;;;;;;;14.13;8.63;;;;;;;;;;10325007;28;20094;-62
2023/02/22 13:58:21;;;;;;;16.35;11.88;;;;;;;;;;10310906;28;20068;-62
2023/02/22 14:03:39;;;;;;;13.07;9.77;;;;;;;;;;10329483;28;20107;-62
2023/02/22 14:08:40;;;;;;;11.68;10.48;;;;;;;;;;10330920;28;20087;-62
2023/02/22 14:13:54;;;;;;;9.93;8.45;;;;;;;;;;10329785;28;20505;-62
2023/02/22 14:19:01;;;;;;;15.25;8.57;;;;;;;;;;10323883;28;20075;-62
2023/02/22 14:24:07;;;;;;;10.00;8.93;;;;;;;;;;10333628;28;20071;-63
2023/02/22 14:29:15;;;;;;;15.63;8.73;;;;;;;;;;10333226;28;20087;-62
2023/02/22 14:34:14;;;;;;;17.85;11.10;;;;;;;;;;10334200;28;20063;-62
2023/02/22 14:39:16;;;;;;;14.65;10.23;;;;;;;;;;10337264;28;20979;-62
2023/02/22 14:44:15;;;;;;;14.65;10.98;;;;;;;;;;10337961;28;20489;-61
2023/02/22 14:49:17;;;;;;;21.95;12.48;;;;;;;;;;10325164;28;20087;-62
2023/02/22 14:54:24;;;;;;;22.35;14.65;;;;;;;;;;10337008;28;20638;-62
2023/02/22 14:59:24;;;;;;;18.05;13.50;;;;;;;;;;10338552;28;20512;-62
2023/02/22 15:04:24;;;;;;;20.17;14.00;;;;;;;;;;10335474;28;20083;-61
2023/02/22 15:09:25;;;;;;;17.30;13.57;;;;;;;;;;10334016;28;20060;-62
2023/02/22 15:14:26;;;;;;;16.03;12.53;;;;;;;;;;10336362;28;20516;-62
2023/02/22 15:19:26;;;;;;;21.38;13.57;;;;;;;;;;10335539;28;20150;-62
2023/02/22 15:24:26;;;;;;;20.42;13.02;;;;;;;;;;10340215;28;20098;-61
2023/02/22 15:29:25;;;;;;;14.57;11.70;;;;;;;;;;10348174;28;20461;-62
2023/02/22 15:34:26;;;;;;;16.70;12.55;;;;;;;;;;10341843;28;20060;-61
2023/02/22 15:39:28;;;;;;;23.33;15.15;;;;;;;;;;10339926;28;20493;-62
2023/02/22 15:44:27;;;;;;;78.25;54.17;;;;;;;;;;10340214;28;20094;-63
2023/02/22 15:49:27;;;;;;;39.22;30.73;;;;;;;;;;10336701;28;20315;-63
2023/02/22 15:54:27;;;;;;;21.10;14.45;;;;;;;;;;10327078;28;20059;-62
2023/02/22 15:59:29;;;;;;;25.92;20.38;;;;;;;;;;10331943;28;20075;-63
2023/02/22 16:04:28;;;;;;;80.72;47.65;;;;;;;;;;10334205;28;20544;-63
2023/02/22 16:09:29;;;;;;;38.25;22.70;;;;;;;;;;10335469;28;20122;-62
2023/02/22 16:14:29;;;;;;;30.90;20.35;;;;;;;;;;10331340;28;20484;-63
2023/02/22 16:19:31;;;;;;;18.63;15.80;;;;;;;;;;10333059;28;20464;-62
2023/02/22 16:24:32;;;;;;;21.67;15.40;;;;;;;;;;10331797;28;20512;-61
2023/02/22 16:29:30;;;;;;;26.42;16.88;;;;;;;;;;10330932;28;20071;-62
2023/02/22 16:34:28;;;;;;;20.88;16.23;;;;;;;;;;10331806;28;20067;-62
2023/02/22 16:39:27;;;;;;;24.88;16.42;;;;;;;;;;10331888;28;20068;-62
2023/02/22 16:44:29;;;;;;;23.40;18.40;;;;;;;;;;10332296;28;20079;-62
2023/02/22 16:49:27;;;;;;;18.90;15.35;;;;;;;;;;10327247;28;20072;-62
2023/02/22 16:54:28;;;;;;;23.95;15.93;;;;;;;;;;10328487;28;20098;-62
2023/02/22 16:59:28;;;;;;;20.77;16.02;;;;;;;;;;10331803;28;20076;-62
2023/02/22 17:04:27;;;;;;;22.33;17.10;;;;;;;;;;10332762;28;20082;-62
2023/02/22 17:09:26;;;;;;;23.23;15.63;;;;;;;;;;10329877;28;20074;-62
2023/02/22 17:14:27;;;;;;;25.27;15.85;;;;;;;;;;10327208;28;20072;-62
2023/02/22 17:19:27;;;;;;;33.33;23.48;;;;;;;;;;10329167;28;20072;-62
2023/02/22 17:24:27;;;;;;;20.25;16.65;;;;;;;;;;10319259;28;20072;-62
2023/02/22 17:29:27;;;;;;;21.05;15.90;;;;;;;;;;10327988;28;20076;-61
2023/02/22 17:34:26;;;;;;;22.30;18.05;;;;;;;;;;10328914;28;20072;-62
2023/02/22 17:39:26;;;;;;;22.40;15.65;;;;;;;;;;10329244;28;20071;-63
2023/02/22 17:44:24;;;;;;;26.15;16.90;;;;;;;;;;10330524;28;20076;-62
2023/02/22 17:49:22;;;;;;;20.25;16.50;;;;;;;;;;10327912;28;20068;-62
2023/02/22 17:54:23;;;;;;;25.58;15.50;;;;;;;;;;10329072;28;20170;-63
2023/02/22 17:59:21;;;;;;;18.42;16.35;;;;;;;;;;10335663;28;20062;-63
2023/02/22 18:04:19;;;;;;;21.08;15.60;;;;;;;;;;10336554;28;20068;-63
2023/02/22 18:09:19;;;;;;;23.05;16.05;;;;;;;;;;10335555;28;20068;-62
2023/02/22 18:14:18;;;;;;;18.85;15.45;;;;;;;;;;10336387;28;20462;-62
2023/02/22 18:19:18;;;;;;;18.60;15.35;;;;;;;;;;10334178;28;20580;-62
2023/02/22 18:24:18;;;;;;;19.70;15.02;;;;;;;;;;10343777;28;20631;-61
2023/02/22 18:29:17;;;;;;;23.75;17.17;;;;;;;;;;10339605;28;20070;-62
2023/02/22 18:34:16;;;;;;;22.50;19.85;;;;;;;;;;10340318;28;20071;-63
2023/02/22 18:39:14;;;;;;;27.90;20.27;;;;;;;;;;10332553;28;20080;-61
2023/02/22 18:44:13;;;;;;;23.55;18.48;;;;;;;;;;10334316;28;20068;-63
2023/02/22 18:49:12;;;;;;;23.95;15.85;;;;;;;;;;10334933;28;20493;-63
2023/02/22 18:54:12;;;;;;;32.72;22.75;;;;;;;;;;10331427;28;20071;-62
2023/02/22 18:59:12;;;;;;;24.35;17.75;;;;;;;;;;10336783;28;20548;-62
2023/02/22 19:04:11;;;;;;;16.42;13.77;;;;;;;;;;10335549;28;20063;-63
2023/02/22 19:09:09;;;;;;;81.47;51.42;;;;;;;;;;10316919;28;20072;-62
2023/02/22 19:14:09;;;;;;;42.80;28.52;;;;;;;;;;10335957;28;20079;-62
2023/02/22 19:19:07;;;;;;;83.15;50.60;;;;;;;;;;10335814;28;20131;-62
2023/02/22 19:24:06;;;;;;;80.80;47.85;;;;;;;;;;10334125;28;20056;-62
2023/02/22 19:29:07;;;;;;;63.38;40.22;;;;;;;;;;10335422;28;20075;-62
2023/02/22 19:34:08;;;;;;;49.42;31.60;;;;;;;;;;10335325;28;20087;-63
2023/02/22 19:39:06;;;;;;;109.22;65.90;;;;;;;;;;10334192;28;20075;-63
2023/02/22 19:44:05;;;;;;;62.40;39.45;;;;;;;;;;10315141;28;20432;-62
2023/02/22 19:49:03;;;;;;;13.95;8.85;;;;;;;;;;10333559;28;20071;-62
2023/02/22 19:54:04;;;;;;;9.75;7.93;;;;;;;;;;10333139;28;20067;-62
2023/02/22 19:59:08;;;;;;;10.70;7.43;;;;;;;;;;10315919;28;20068;-62
2023/02/22 20:04:07;;;;;;;8.93;6.53;;;;;;;;;;10332695;28;20087;-62
2023/02/22 20:09:07;;;;;;;7.28;5.43;;;;;;;;;;10335150;28;20059;-62
2023/02/22 20:14:05;;;;;;;6.32;5.13;;;;;;;;;;10333316;28;20087;-61
2023/02/22 20:19:05;;;;;;;6.93;4.95;;;;;;;;;;10330924;28;20060;-61
2023/02/22 20:24:03;;;;;;;6.20;4.75;;;;;;;;;;10330108;28;20060;-62
2023/02/22 20:29:03;;;;;;;9.48;4.85;;;;;;;;;;10332608;28;20559;-62
2023/02/22 20:34:04;;;;;;;7.50;4.70;;;;;;;;;;10328484;28;20083;-63
2023/02/22 20:39:06;;;;;;;7.32;5.25;;;;;;;;;;10342208;28;20068;-62
2023/02/22 20:44:14;;;;;;;4.97;4.47;;;;;;;;;;10409335;27;20359;-63
2023/02/22 20:49:13;;;;;;;6.40;4.57;;;;;;;;;;10374292;28;20519;-62
2023/02/22 20:54:12;;;;;;;6.70;4.60;;;;;;;;;;10371400;28;20067;-62
2023/02/22 20:59:11;;;;;;;7.72;4.18;;;;;;;;;;10378650;28;20059;-63
2023/02/22 21:04:11;;;;;;;4.32;3.85;;;;;;;;;;10376606;28;20064;-63
2023/02/22 21:09:12;;;;;;;6.22;3.78;;;;;;;;;;10376580;28;20070;-63
2023/02/22 21:14:15;;;;;;;4.38;3.58;;;;;;;;;;10369906;28;20154;-63
2023/02/22 21:19:23;;;;;;;5.13;3.70;;;;;;;;;;10376529;28;20076;-62
2023/02/22 21:24:25;;;;;;;5.75;3.33;;;;;;;;;;10377491;28;20060;-62
2023/02/22 21:29:24;;;;;;;4.47;2.97;;;;;;;;;;10371569;28;20075;-61
2023/02/22 21:34:24;;;;;;;8.00;3.35;;;;;;;;;;10377648;28;20078;-61
2023/02/22 21:39:27;;;;;;;4.43;3.10;;;;;;;;;;10375190;28;20066;-61
2023/02/22 21:44:25;;;;;;;3.78;3.35;;;;;;;;;;10377602;28;20079;-62
2023/02/22 21:49:25;;;;;;;6.38;3.85;;;;;;;;;;10375955;28;20525;-63
2023/02/22 21:54:23;;;;;;;7.03;3.55;;;;;;;;;;10351168;28;20060;-61
2023/02/22 21:59:22;;;;;;;6.22;3.97;;;;;;;;;;10347268;28;20074;-61
2023/02/22 22:04:22;;;;;;;5.70;3.42;;;;;;;;;;10345943;28;20076;-62
2023/02/22 22:09:22;;;;;;;4.97;3.28;;;;;;;;;;10346537;28;20070;-62
2023/02/22 22:14:21;;;;;;;4.80;3.22;;;;;;;;;;10338675;28;20473;-62
2023/02/22 22:19:20;;;;;;;7.22;3.97;;;;;;;;;;10341834;28;20070;-63
2023/02/22 22:24:19;;;;;;;9.70;3.95;;;;;;;;;;10343395;28;20528;-62
2023/02/22 22:29:19;;;;;;;16.73;10.65;;;;;;;;;;10339547;28;20075;-62
2023/02/22 22:34:18;;;;;;;10.50;6.95;;;;;;;;;;10345370;28;20064;-61
2023/02/22 22:39:19;;;;;;;8.90;5.70;;;;;;;;;;10342334;28;20075;-63
2023/02/22 22:44:21;;;;;;;6.68;4.72;;;;;;;;;;10343667;28;20486;-61
2023/02/22 22:49:22;;;;;;;9.95;5.80;;;;;;;;;;10342638;28;20067;-62
2023/02/22 22:54:20;;;;;;;11.52;6.75;;;;;;;;;;10342200;28;20077;-62
2023/02/22 22:59:20;;;;;;;13.02;7.10;;;;;;;;;;10344787;28;20072;-63
2023/02/22 23:04:18;;;;;;;14.63;9.40;;;;;;;;;;10344136;28;20518;-61
2023/02/22 23:09:18;;;;;;;9.43;5.75;;;;;;;;;;10339623;28;20128;-63
2023/02/22 23:14:18;;;;;;;9.95;5.18;;;;;;;;;;10341843;28;20071;-63
2023/02/22 23:19:18;;;;;;;20.75;8.20;;;;;;;;;;10341980;28;20044;-63
2023/02/22 23:24:17;;;;;;;18.85;10.48;;;;;;;;;;10335837;28;20083;-63
2023/02/22 23:29:16;;;;;;;32.88;18.35;;;;;;;;;;10342346;28;20064;-63
2023/02/22 23:34:14;;;;;;;21.30;15.30;;;;;;;;;;10342211;28;20076;-62
2023/02/22 23:39:15;;;;;;;37.40;23.35;;;;;;;;;;10339049;28;20553;-62
2023/02/22 23:44:16;;;;;;;39.25;23.85;;;;;;;;;;10342985;28;20076;-63
2023/02/22 23:49:18;;;;;;;46.80;27.20;;;;;;;;;;10341201;28;20110;-62
2023/02/22 23:54:19;;;;;;;40.80;25.10;;;;;;;;;;10340781;28;20483;-63
2023/02/22 23:59:17;;;;;;;33.47;21.00;;;;;;;;;;10334334;28;20076;-63
